Time;durP1;ratioP1;P1;durP2;ratioP2;P2;SDS_P1;SDS_P2;PMS_P1;PMS_P2;Temp;Humidity;BMP_temperature;BMP_pressure;BME280_temperature;BME280_humidity;BME280_pressure;Samples;Min_cycle;Max_cycle;Signal;HPM_P1;HPM_P2
2023/04/19 00:01:38;;;;;;;0.43;0.43;;;;;;;23.97;34.60;99311.39;1835184;76;28249;-53
2023/04/19 00:04:26;;;;;;;0.40;0.40;;;;;;;23.98;34.61;99307.58;1923628;73;28137;-56
2023/04/19 00:07:16;;;;;;;0.70;0.57;;;;;;;23.96;34.66;99307.00;1906874;73;28064;-56
2023/04/19 00:10:04;;;;;;;0.33;0.33;;;;;;;23.97;34.66;99305.91;1917581;73;28103;-53
2023/04/19 00:12:53;;;;;;;0.37;0.37;;;;;;;23.95;34.68;99310.28;1901313;73;28193;-54
2023/04/19 00:15:41;;;;;;;0.40;0.40;;;;;;;23.97;34.67;99307.28;1907299;73;27982;-52
2023/04/19 00:18:30;;;;;;;0.33;0.33;;;;;;;23.98;34.64;99307.58;1904460;73;28079;-54
2023/04/19 00:21:18;;;;;;;0.40;0.40;;;;;;;23.97;34.68;99307.28;1901516;73;28126;-51
2023/04/19 00:24:07;;;;;;;0.42;0.42;;;;;;;23.96;34.69;99309.74;1900933;74;28145;-54
2023/04/19 00:26:56;;;;;;;0.50;0.50;;;;;;;23.96;34.69;99305.63;1901126;75;28029;-54
2023/04/19 00:29:44;;;;;;;0.50;0.50;;;;;;;23.91;34.72;99300.89;1901316;75;28134;-56
2023/04/19 00:32:33;;;;;;;0.30;0.30;;;;;;;23.95;34.73;99305.33;1909521;73;28052;-55
2023/04/19 00:35:21;;;;;;;0.30;0.30;;;;;;;23.97;34.72;99310.02;1901394;75;28079;-53
2023/04/19 00:38:10;;;;;;;0.60;0.40;;;;;;;23.97;34.72;99308.11;1908401;73;28049;-52
2023/04/19 00:40:59;;;;;;;0.50;0.40;;;;;;;23.95;34.74;99308.91;1902025;73;28059;-53
2023/04/19 00:43:47;;;;;;;0.28;0.28;;;;;;;23.95;34.75;99303.95;1901101;75;28040;-55
2023/04/19 00:46:37;;;;;;;0.40;0.40;;;;;;;23.94;34.75;99307.80;1908288;73;28208;-50
2023/04/19 00:49:28;;;;;;;0.50;0.50;;;;;;;23.95;34.76;99306.16;1908547;73;28123;-52
2023/04/19 00:52:16;;;;;;;0.30;0.30;;;;;;;23.95;34.79;99302.05;1901312;73;28055;-51
2023/04/19 00:55:06;;;;;;;0.60;0.60;;;;;;;23.96;34.77;99307.84;1910615;73;39423;-52
2023/04/19 00:57:55;;;;;;;0.70;0.70;;;;;;;23.94;34.79;99307.23;1917910;73;28050;-55
2023/04/19 01:00:43;;;;;;;0.35;0.35;;;;;;;23.95;34.77;99303.95;1891819;74;28007;-55
2023/04/19 01:03:34;;;;;;;0.40;0.40;;;;;;;23.95;34.78;99302.58;1893190;74;28139;-54
2023/04/19 01:06:22;;;;;;;0.40;0.40;;;;;;;23.94;34.81;99296.25;1908382;73;28073;-55
2023/04/19 01:09:11;;;;;;;0.30;0.30;;;;;;;23.94;34.79;99303.11;1889551;74;28069;-55
2023/04/19 01:12:02;;;;;;;0.45;0.45;;;;;;;23.96;34.79;99291.91;1906453;74;28683;-54
2023/04/19 01:14:51;;;;;;;0.40;0.40;;;;;;;23.94;34.83;99289.96;1904310;73;28043;-52
2023/04/19 01:17:39;;;;;;;0.50;0.50;;;;;;;23.95;34.85;99288.86;1901284;73;28016;-54
2023/04/19 01:20:28;;;;;;;0.50;0.50;;;;;;;23.93;34.86;99294.61;1901455;75;28184;-52
2023/04/19 01:23:17;;;;;;;0.30;0.30;;;;;;;23.92;34.89;99297.61;1892310;74;28092;-52
2023/04/19 01:26:05;;;;;;;0.37;0.37;;;;;;;23.95;35.14;99302.05;1917867;73;28042;-54
2023/04/19 01:28:54;;;;;;;0.45;0.45;;;;;;;23.95;35.14;99302.05;1915037;73;28284;-54
2023/04/19 01:31:42;;;;;;;0.20;0.20;;;;;;;23.93;34.93;99300.63;1896131;74;28110;-54
2023/04/19 01:34:30;;;;;;;0.47;0.47;;;;;;;23.91;34.91;99296.77;1923546;73;27957;-54
2023/04/19 01:37:18;;;;;;;0.40;0.40;;;;;;;23.92;34.97;99293.50;1891926;74;28093;-53
2023/04/19 01:40:08;;;;;;;0.40;0.40;;;;;;;23.93;34.97;99291.02;1920698;73;28119;-52
2023/04/19 01:42:57;;;;;;;0.35;0.35;;;;;;;23.91;34.98;99289.91;1894208;74;28063;-54
2023/04/19 01:45:46;;;;;;;0.55;0.55;;;;;;;23.93;34.97;99290.49;1901385;75;28044;-54
2023/04/19 01:48:35;;;;;;;0.40;0.40;;;;;;;23.95;35.00;99283.38;1892907;74;38555;-51
2023/04/19 01:51:23;;;;;;;0.40;0.40;;;;;;;23.94;34.98;99277.05;1908770;74;27991;-54
2023/04/19 01:54:12;;;;;;;0.42;0.42;;;;;;;23.94;34.96;99285.84;1912406;73;28141;-54
2023/04/19 01:57:01;;;;;;;0.50;0.50;;;;;;;23.94;35.03;99287.22;1912495;73;28092;-55
2023/04/19 01:59:50;;;;;;;0.33;0.33;;;;;;;23.94;35.04;99285.84;1895432;74;28082;-54
2023/04/19 02:02:39;;;;;;;0.30;0.30;;;;;;;23.92;35.04;99286.08;1894619;74;28007;-54
2023/04/19 02:05:27;;;;;;;0.50;0.50;;;;;;;23.93;35.07;99286.91;1923803;73;28062;-55
2023/04/19 02:08:15;;;;;;;0.40;0.40;;;;;;;23.93;35.08;99284.17;1895110;74;28054;-55
2023/04/19 02:11:09;;;;;;;1.70;0.30;;;;;;;23.91;35.11;99280.84;1895171;74;28111;-52
2023/04/19 02:13:57;;;;;;;0.30;0.30;;;;;;;23.94;35.10;99289.96;1893549;74;28141;-53
2023/04/19 02:16:47;;;;;;;0.30;0.30;;;;;;;23.91;35.12;99292.66;1897322;74;28142;-54
2023/04/19 02:19:35;;;;;;;0.47;0.47;;;;;;;23.92;35.13;99290.75;1901521;74;28010;-54
2023/04/19 02:22:24;;;;;;;0.40;0.40;;;;;;;23.91;35.17;99294.56;1910314;73;28036;-53
2023/04/19 02:25:12;;;;;;;0.40;0.40;;;;;;;23.89;35.22;99297.56;1905392;73;28156;-54
2023/04/19 02:28:00;;;;;;;0.30;0.30;;;;;;;23.92;35.20;99300.35;1897413;74;28040;-52
2023/04/19 02:30:50;;;;;;;0.28;0.28;;;;;;;23.91;35.20;99295.41;1907486;73;28087;-54
2023/04/19 02:33:38;;;;;;;0.42;0.42;;;;;;;23.91;35.25;99293.19;1914609;73;28116;-56
2023/04/19 02:36:26;;;;;;;0.40;0.40;;;;;;;23.93;35.22;99291.02;1889219;75;28110;-54
2023/04/19 02:39:16;;;;;;;0.30;0.30;;;;;;;23.90;35.27;99292.88;1888929;75;28135;-54
2023/04/19 02:42:05;;;;;;;0.28;0.28;;;;;;;23.91;35.27;99287.17;1892004;74;28095;-54
2023/04/19 02:44:53;;;;;;;0.47;0.45;;;;;;;23.90;35.23;99290.14;1898042;74;28064;-52
2023/04/19 02:47:45;;;;;;;0.40;0.40;;;;;;;23.93;35.26;99286.91;1902866;73;28085;-53
2023/04/19 02:50:35;;;;;;;0.35;0.35;;;;;;;23.90;35.27;99288.23;1902243;73;28064;-54
2023/04/19 02:53:23;;;;;;;0.35;0.35;;;;;;;23.91;35.25;99297.30;1904418;74;28023;-53
2023/04/19 02:56:12;;;;;;;0.40;0.40;;;;;;;23.92;35.26;99300.35;1923718;73;32064;-54
2023/04/19 02:59:01;;;;;;;0.30;0.30;;;;;;;23.92;35.26;99294.87;1892627;74;30056;-53
2023/04/19 03:01:50;;;;;;;0.40;0.40;;;;;;;23.91;35.25;99300.89;1905340;74;28092;-53
2023/04/19 03:04:39;;;;;;;0.20;0.20;;;;;;;23.91;35.26;99297.30;1915955;73;28006;-55
2023/04/19 03:07:28;;;;;;;0.30;0.30;;;;;;;23.92;35.25;99298.42;1924228;73;28079;-51
2023/04/19 03:10:17;;;;;;;0.30;0.30;;;;;;;23.90;35.27;99293.72;1923617;73;28081;-54
2023/04/19 03:13:05;;;;;;;0.40;0.40;;;;;;;23.90;35.25;99288.23;1901205;75;27964;-53
2023/04/19 03:15:54;;;;;;;0.30;0.30;;;;;;;23.89;35.30;99295.36;1903092;73;27979;-55
2023/04/19 03:18:43;;;;;;;0.30;0.30;;;;;;;23.89;35.31;99296.73;1904053;73;28048;-53
2023/04/19 03:21:32;;;;;;;0.40;0.40;;;;;;;23.90;35.29;99296.47;1901303;75;28103;-53
2023/04/19 03:24:29;;;;;;;0.33;0.33;;;;;;;23.88;35.28;99293.67;1919052;73;27968;-55
2023/04/19 03:27:19;;;;;;;0.75;0.50;;;;;;;23.90;35.30;99301.95;1903037;73;32439;-55
2023/04/19 03:30:10;;;;;;;0.30;0.30;;;;;;;23.88;35.31;99300.53;1901858;73;28122;-53
2023/04/19 03:32:58;;;;;;;0.33;0.33;;;;;;;23.88;35.33;99303.28;1901819;73;28132;-55
2023/04/19 03:35:47;;;;;;;0.35;0.35;;;;;;;23.90;35.28;99301.12;1901452;73;28095;-54
2023/04/19 03:38:37;;;;;;;0.30;0.30;;;;;;;23.88;35.31;99296.42;1901516;73;28052;-54
2023/04/19 03:41:27;;;;;;;0.37;0.37;;;;;;;23.87;35.30;99297.52;1867337;75;28177;-53
2023/04/19 03:44:35;;;;;;;0.30;0.30;;;;;;;23.88;35.30;99299.16;1844891;76;28602;-53
2023/04/19 03:47:25;;;;;;;0.30;0.30;;;;;;;23.86;35.30;99302.70;1912153;73;28164;-52
2023/04/19 03:50:15;;;;;;;0.20;0.20;;;;;;;23.86;35.31;99299.95;1848480;76;28228;-53
2023/04/19 03:53:05;;;;;;;0.40;0.40;;;;;;;23.87;35.31;99303.00;1922336;73;28067;-54
2023/04/19 03:55:55;;;;;;;0.28;0.28;;;;;;;23.85;35.33;99301.05;1902809;73;28139;-52
2023/04/19 03:58:44;;;;;;;0.40;0.40;;;;;;;23.85;35.30;99296.94;1844291;76;28253;-54
2023/04/19 04:01:32;;;;;;;4.47;1.12;;;;;;;23.85;35.30;99303.80;1901281;73;28099;-53
2023/04/19 04:04:22;;;;;;;4.15;1.50;;;;;;;23.85;35.29;99301.86;1890848;73;30150;-53
2023/04/19 04:07:10;;;;;;;2.87;1.22;;;;;;;23.86;35.28;99304.07;1892272;74;28103;-54
2023/04/19 04:09:59;;;;;;;4.53;1.45;;;;;;;23.85;35.29;99298.31;1903800;74;28559;-55
2023/04/19 04:12:49;;;;;;;2.25;1.20;;;;;;;23.85;35.27;99299.68;1889680;75;28027;-52
2023/04/19 04:15:39;;;;;;;1.50;0.70;;;;;;;23.85;35.26;99302.42;1901641;73;28152;-54
2023/04/19 04:18:29;;;;;;;1.80;0.90;;;;;;;23.85;35.28;99301.05;1901173;73;28087;-53
2023/04/19 04:21:18;;;;;;;2.98;0.95;;;;;;;23.85;35.26;99301.05;1901209;75;28163;-53
2023/04/19 04:24:08;;;;;;;0.98;0.68;;;;;;;23.84;35.28;99302.95;1889307;74;28214;-52
2023/04/19 04:26:59;;;;;;;1.80;0.73;;;;;;;23.84;35.28;99304.86;1889785;74;28230;-53
2023/04/19 04:29:50;;;;;;;1.52;1.07;;;;;;;23.83;35.29;99311.41;1901609;73;28169;-52
2023/04/19 04:32:39;;;;;;;2.42;0.70;;;;;;;23.84;35.28;99307.07;1831971;77;28305;-54
2023/04/19 04:35:29;;;;;;;0.80;0.80;;;;;;;23.82;35.28;99313.34;1821953;77;28281;-52
2023/04/19 04:38:20;;;;;;;1.00;0.80;;;;;;;23.82;35.33;99317.47;1853465;77;28183;-55
2023/04/19 04:41:08;;;;;;;1.35;0.55;;;;;;;23.83;35.28;99320.48;1873256;75;28248;-52
2023/04/19 04:43:59;;;;;;;0.70;0.70;;;;;;;23.85;35.29;99321.06;1853156;77;28271;-54
2023/04/19 04:46:48;;;;;;;2.17;1.00;;;;;;;23.83;35.30;99321.02;1853777;75;28161;-55
2023/04/19 04:49:38;;;;;;;1.20;0.90;;;;;;;23.82;35.32;99320.73;1873379;75;28325;-51
2023/04/19 04:52:26;;;;;;;0.80;0.80;;;;;;;23.81;35.32;99327.29;1854695;75;28278;-51
2023/04/19 04:55:16;;;;;;;1.30;0.70;;;;;;;23.82;35.33;99325.69;1867476;75;28184;-54
2023/04/19 04:58:05;;;;;;;0.70;0.70;;;;;;;23.83;35.30;99326.50;1855286;75;28190;-54
2023/04/19 05:01:04;;;;;;;0.72;0.72;;;;;;;23.83;35.29;99330.61;1855020;77;31078;-54
2023/04/19 05:03:54;;;;;;;0.93;0.60;;;;;;;23.82;35.29;99326.22;1857161;76;28313;-54
2023/04/19 05:06:43;;;;;;;0.78;0.70;;;;;;;23.82;35.30;99330.34;1901563;73;28332;-53
2023/04/19 05:09:31;;;;;;;0.80;0.80;;;;;;;23.81;35.36;99332.77;1915925;73;27984;-52
2023/04/19 05:12:20;;;;;;;1.98;1.02;;;;;;;23.81;35.36;99334.14;1905824;73;28083;-54
2023/04/19 05:15:10;;;;;;;2.37;0.80;;;;;;;23.82;35.40;99341.31;1903682;73;28183;-53
2023/04/19 05:18:00;;;;;;;1.45;0.85;;;;;;;23.81;35.40;99331.41;1901406;75;28005;-55
2023/04/19 05:20:48;;;;;;;0.65;0.62;;;;;;;23.81;35.38;99336.36;1914618;73;28047;-53
2023/04/19 05:23:41;;;;;;;0.62;0.62;;;;;;;23.82;35.32;99335.83;1903555;73;27982;-54
2023/04/19 05:26:29;;;;;;;0.90;0.82;;;;;;;23.82;35.34;99339.41;1901591;73;28060;-52
2023/04/19 05:29:18;;;;;;;2.52;0.85;;;;;;;23.82;35.28;99344.05;1901979;73;28125;-55
2023/04/19 05:32:08;;;;;;;0.97;0.90;;;;;;;23.82;35.32;99343.52;1901767;73;28262;-55
2023/04/19 05:35:01;;;;;;;1.50;0.78;;;;;;;23.82;35.26;99338.57;1901010;75;28217;-53
2023/04/19 05:37:50;;;;;;;0.78;0.78;;;;;;;23.82;35.26;99342.68;1904891;73;28044;-55
2023/04/19 05:40:39;;;;;;;0.70;0.70;;;;;;;23.82;35.25;99346.27;1901426;73;38940;-53
2023/04/19 05:43:27;;;;;;;0.60;0.55;;;;;;;23.83;35.24;99341.59;1917274;73;28074;-53
2023/04/19 05:46:15;;;;;;;0.70;0.70;;;;;;;23.84;35.19;99343.27;1901005;75;28168;-54
2023/04/19 05:49:04;;;;;;;0.60;0.60;;;;;;;23.82;35.09;99346.27;1917291;73;28033;-55
2023/04/19 05:52:06;;;;;;;0.90;0.90;;;;;;;23.79;35.05;99345.91;1915037;73;28122;-52
2023/04/19 05:54:59;;;;;;;1.02;1.02;;;;;;;23.73;33.69;99341.42;1901542;75;28033;-54
2023/04/19 05:57:50;;;;;;;0.93;0.93;;;;;;;23.69;33.12;99339.69;1901371;75;28174;-53
2023/04/19 06:00:38;;;;;;;0.90;0.60;;;;;;;23.67;33.40;99334.99;1924004;73;28044;-55
2023/04/19 06:03:29;;;;;;;1.05;0.65;;;;;;;23.68;33.71;99337.20;1901509;73;28098;-52
2023/04/19 06:06:17;;;;;;;2.20;0.80;;;;;;;23.69;34.01;99334.73;1864809;76;28263;-54
2023/04/19 06:09:06;;;;;;;0.70;0.70;;;;;;;23.70;34.08;99337.78;1901466;73;27982;-51
2023/04/19 06:11:55;;;;;;;1.70;0.80;;;;;;;23.71;34.16;99333.42;1902393;73;28099;-53
2023/04/19 06:14:44;;;;;;;0.60;0.50;;;;;;;23.72;34.38;99337.00;1901737;73;28124;-50
2023/04/19 06:17:33;;;;;;;1.65;0.80;;;;;;;23.75;34.40;99327.76;1912627;73;28188;-51
2023/04/19 06:20:21;;;;;;;0.60;0.60;;;;;;;23.79;34.34;99340.42;1901488;75;28006;-51
2023/04/19 06:23:11;;;;;;;0.90;0.90;;;;;;;23.78;34.37;99346.44;1901511;73;28064;-51
2023/04/19 06:26:00;;;;;;;0.78;0.78;;;;;;;23.78;34.43;99338.77;1902047;73;28179;-47
2023/04/19 06:28:48;;;;;;;0.93;0.93;;;;;;;23.81;34.62;99341.00;1854013;76;28215;-48
2023/04/19 06:31:37;;;;;;;3.77;1.05;;;;;;;23.79;34.63;99333.56;1912443;73;34042;-49
2023/04/19 06:34:25;;;;;;;1.02;0.70;;;;;;;23.76;34.85;99336.79;1901393;75;28135;-47
2023/04/19 06:37:14;;;;;;;0.85;0.80;;;;;;;23.76;35.18;99340.38;1913228;73;28073;-51
2023/04/19 06:40:04;;;;;;;1.35;0.62;;;;;;;23.77;35.30;99335.20;1906313;73;28079;-58
2023/04/19 06:42:53;;;;;;;0.80;0.80;;;;;;;23.80;35.43;99336.61;1901173;75;27987;-52
2023/04/19 06:45:41;;;;;;;2.15;0.90;;;;;;;23.77;35.66;99337.09;1912161;73;27997;-50
2023/04/19 06:48:30;;;;;;;0.60;0.60;;;;;;;23.80;35.71;99332.50;1914089;73;28179;-50
2023/04/19 06:51:18;;;;;;;0.70;0.70;;;;;;;23.79;35.91;99333.56;1909833;73;28026;-53
2023/04/19 06:54:07;;;;;;;1.00;1.00;;;;;;;23.79;36.05;99333.56;1901277;75;28149;-53
2023/04/19 06:56:57;;;;;;;0.82;0.60;;;;;;;23.83;36.22;99325.13;1901286;75;28082;-50
2023/04/19 06:59:45;;;;;;;0.80;0.72;;;;;;;23.81;36.28;99325.92;1913884;73;28175;-52
2023/04/19 07:02:33;;;;;;;0.68;0.68;;;;;;;23.81;36.25;99325.92;1915597;73;28043;-50
2023/04/19 07:05:22;;;;;;;1.60;0.90;;;;;;;23.82;36.28;99322.11;1901500;74;28156;-51
2023/04/19 07:08:10;;;;;;;0.62;0.62;;;;;;;23.80;36.35;99320.16;1905595;74;28138;-52
2023/04/19 07:10:58;;;;;;;1.40;0.67;;;;;;;23.82;36.31;99326.22;1914244;74;28012;-50
2023/04/19 07:13:46;;;;;;;2.90;0.70;;;;;;;23.82;36.32;99320.20;1892920;74;27971;-48
2023/04/19 07:16:34;;;;;;;1.10;0.80;;;;;;;23.80;36.26;99321.00;1909109;74;28179;-52
2023/04/19 07:19:23;;;;;;;1.02;0.62;;;;;;;23.80;36.36;99320.16;1898479;74;28001;-49
2023/04/19 07:22:11;;;;;;;1.20;0.80;;;;;;;23.82;36.30;99317.47;1907686;74;28063;-52
2023/04/19 07:24:59;;;;;;;1.22;0.60;;;;;;;23.79;36.30;99315.73;1895138;74;28217;-53
2023/04/19 07:27:48;;;;;;;0.60;0.60;;;;;;;23.78;36.31;99314.09;1892010;74;28081;-51
2023/04/19 07:30:37;;;;;;;0.50;0.50;;;;;;;23.78;36.33;99316.83;1898728;74;28106;-52
2023/04/19 07:33:25;;;;;;;1.22;0.70;;;;;;;23.80;36.37;99311.93;1908760;74;28147;-48
2023/04/19 07:36:14;;;;;;;1.05;0.53;;;;;;;23.78;36.31;99311.34;1902054;74;28116;-50
2023/04/19 07:39:03;;;;;;;0.72;0.72;;;;;;;23.79;36.30;99308.88;1887152;75;28121;-47
2023/04/19 07:41:52;;;;;;;1.60;0.80;;;;;;;23.78;36.27;99310.78;1899447;74;28139;-51
2023/04/19 07:44:40;;;;;;;0.70;0.70;;;;;;;23.80;36.30;99305.07;1904856;74;28116;-48
2023/04/19 07:47:30;;;;;;;0.50;0.50;;;;;;;23.74;36.25;99294.53;1887588;74;28139;-52
2023/04/19 07:50:18;;;;;;;0.75;0.70;;;;;;;23.81;36.26;99299.33;1894894;74;27991;-50
2023/04/19 07:53:06;;;;;;;0.65;0.65;;;;;;;23.80;36.28;99296.31;1902940;74;28052;-50
2023/04/19 07:55:55;;;;;;;2.87;0.75;;;;;;;23.80;36.17;99304.54;1891292;74;27986;-52
2023/04/19 07:58:43;;;;;;;0.60;0.60;;;;;;;23.81;36.21;99302.07;1890670;74;28086;-51
2023/04/19 08:01:31;;;;;;;2.25;0.70;;;;;;;23.82;36.14;99296.89;1870997;75;28265;-50
2023/04/19 08:04:21;;;;;;;0.60;0.60;;;;;;;23.82;36.12;99296.89;1832990;77;28159;-48
2023/04/19 08:07:10;;;;;;;0.70;0.70;;;;;;;23.84;36.09;99296.63;1880140;74;28197;-49
2023/04/19 08:09:59;;;;;;;0.90;0.60;;;;;;;23.82;36.10;99288.66;1896210;75;28056;-49
2023/04/19 08:12:48;;;;;;;0.60;0.60;;;;;;;23.81;36.04;99288.89;1870729;75;27932;-48
2023/04/19 08:15:37;;;;;;;0.50;0.50;;;;;;;23.77;36.04;99283.08;1898235;74;27963;-47
2023/04/19 08:18:25;;;;;;;0.85;0.85;;;;;;;23.82;36.05;99281.80;1881733;75;28164;-48
2023/04/19 08:21:14;;;;;;;0.68;0.68;;;;;;;23.81;36.02;99276.55;1899919;74;28121;-51
2023/04/19 08:24:02;;;;;;;0.60;0.60;;;;;;;23.83;35.98;99270.27;1876963;75;28037;-51
2023/04/19 08:26:53;;;;;;;0.83;0.70;;;;;;;23.83;35.96;99269.73;1890460;74;27970;-50
2023/04/19 08:29:42;;;;;;;0.85;0.85;;;;;;;23.82;35.92;99270.83;1890056;75;28579;-51
2023/04/19 08:32:30;;;;;;;0.60;0.60;;;;;;;23.83;35.90;99266.16;1886255;75;28110;-47
2023/04/19 08:35:18;;;;;;;1.20;0.70;;;;;;;23.85;35.87;99265.39;1885264;74;27915;-48
2023/04/19 08:38:08;;;;;;;0.65;0.65;;;;;;;23.82;35.88;99259.86;1898470;74;28171;-51
2023/04/19 08:40:56;;;;;;;0.62;0.62;;;;;;;23.82;35.88;99256.28;1885479;75;28113;-51
2023/04/19 08:43:47;;;;;;;0.50;0.50;;;;;;;23.82;35.86;99253.53;1890651;74;27922;-50
2023/04/19 08:46:35;;;;;;;0.68;0.68;;;;;;;23.80;35.88;99249.68;1887668;75;28309;-48
2023/04/19 08:49:25;;;;;;;0.90;0.60;;;;;;;23.81;35.80;99249.95;1882468;75;28065;-50
2023/04/19 08:52:14;;;;;;;1.50;0.80;;;;;;;23.80;35.81;99246.94;1891072;75;28141;-53
2023/04/19 08:55:08;;;;;;;0.65;0.65;;;;;;;23.79;35.83;99244.42;1902926;74;28121;-51
2023/04/19 08:57:57;;;;;;;1.00;0.70;;;;;;;23.79;35.81;99243.89;1884255;75;27990;-51
2023/04/19 09:00:46;;;;;;;0.50;0.50;;;;;;;23.79;35.79;99238.41;1898921;75;28171;-48
2023/04/19 09:03:35;;;;;;;0.60;0.60;;;;;;;23.80;35.83;99240.61;1885699;75;28033;-50
2023/04/19 09:06:23;;;;;;;0.85;0.85;;;;;;;23.78;35.79;99232.61;1898939;75;28119;-51
2023/04/19 09:09:26;;;;;;;0.57;0.57;;;;;;;23.79;35.78;99234.29;1889795;74;27984;-52
2023/04/19 09:12:18;;;;;;;1.50;0.60;;;;;;;23.80;35.78;99231.02;1887872;75;28064;-48
2023/04/19 09:15:08;;;;;;;0.60;0.60;;;;;;;23.80;35.75;99226.90;1901007;74;27952;-50
2023/04/19 09:18:08;;;;;;;0.90;0.78;;;;;;;23.79;35.79;99221.95;1877414;75;28127;-52
2023/04/19 09:20:57;;;;;;;0.88;0.60;;;;;;;23.80;35.71;99221.41;1889012;74;31957;-50
2023/04/19 09:23:47;;;;;;;0.57;0.57;;;;;;;23.77;35.74;99220.53;1879993;75;27958;-49
2023/04/19 09:26:36;;;;;;;0.55;0.50;;;;;;;23.77;35.72;99210.40;1897770;75;28079;-49
2023/04/19 09:29:25;;;;;;;0.60;0.55;;;;;;;23.77;35.72;99202.70;1904853;74;28058;-47
2023/04/19 09:32:14;;;;;;;0.88;0.57;;;;;;;23.79;35.72;99204.12;1886640;74;28031;-47
2023/04/19 09:35:03;;;;;;;0.73;0.73;;;;;;;23.77;35.68;99195.84;1894560;75;27975;-52
2023/04/19 09:37:59;;;;;;;1.12;0.57;;;;;;;23.79;35.68;99194.52;1901453;74;28144;-50
2023/04/19 09:40:49;;;;;;;0.70;0.70;;;;;;;23.80;35.63;99185.22;1901103;74;31882;-52
2023/04/19 09:43:37;;;;;;;0.82;0.80;;;;;;;23.80;35.60;99187.13;1887848;74;27957;-47
2023/04/19 09:46:33;;;;;;;0.90;0.78;;;;;;;23.79;35.59;99173.95;1895293;74;28176;-48
2023/04/19 09:49:25;;;;;;;1.30;0.62;;;;;;;23.80;35.59;99170.67;1898436;74;38542;-50
2023/04/19 09:52:15;;;;;;;0.50;0.50;;;;;;;23.80;35.58;99172.04;1901400;75;27988;-50
2023/04/19 09:55:06;;;;;;;0.40;0.40;;;;;;;23.79;35.58;99168.46;1889474;75;28111;-53
2023/04/19 09:57:54;;;;;;;0.62;0.60;;;;;;;23.80;35.55;99157.80;1897284;74;28143;-51
2023/04/19 10:00:51;;;;;;;0.60;0.60;;;;;;;23.82;35.52;99156.16;1882532;75;28190;-51
2023/04/19 10:03:35;;;;;;;0.50;0.50;;;;;;;23.82;35.48;99148.77;1890546;74;27955;-46
2023/04/19 10:06:24;;;;;;;0.65;0.65;;;;;;;23.81;35.47;99145.72;1884716;75;31403;-50
2023/04/19 10:09:14;;;;;;;0.50;0.50;;;;;;;23.81;35.48;99138.86;1892311;74;38729;-51
2023/04/19 10:12:04;;;;;;;0.60;0.60;;;;;;;23.82;35.46;99143.28;1898722;75;28130;-49
2023/04/19 10:14:59;;;;;;;1.50;0.90;;;;;;;23.81;35.42;99139.41;1898757;75;28021;-50
2023/04/19 10:17:48;;;;;;;2.40;0.50;;;;;;;23.82;35.41;99137.80;1866028;76;28198;-54
2023/04/19 10:20:54;;;;;;;0.50;0.40;;;;;;;23.82;35.40;99134.22;1898325;75;28158;-52
2023/04/19 10:23:42;;;;;;;0.60;0.60;;;;;;;23.80;35.41;99124.87;1904846;74;28093;-52
2023/04/19 10:26:32;;;;;;;0.50;0.50;;;;;;;23.79;35.43;99119.63;1898539;75;28006;-52
2023/04/19 10:29:53;;;;;;;0.42;0.42;;;;;;;23.80;35.44;99121.30;1898612;74;28047;-51
2023/04/19 10:32:43;;;;;;;0.60;0.57;;;;;;;23.82;35.40;99115.02;1866017;76;28224;-53
2023/04/19 10:35:37;;;;;;;0.70;0.70;;;;;;;23.76;35.40;99105.88;1884599;74;28020;-48
2023/04/19 10:38:46;;;;;;;0.70;0.70;;;;;;;23.79;35.40;99099.05;1908171;74;28081;-48
2023/04/19 10:41:54;;;;;;;0.60;0.60;;;;;;;23.82;35.36;99105.42;1901921;74;28083;-53
2023/04/19 10:44:44;;;;;;;0.80;0.80;;;;;;;23.79;35.39;99099.89;1901588;74;27967;-48
2023/04/19 10:47:44;;;;;;;0.70;0.70;;;;;;;23.80;35.39;99097.98;1907803;74;27930;-53
2023/04/19 10:50:52;;;;;;;0.50;0.50;;;;;;;23.81;35.31;99093.61;1898725;75;28555;-48
2023/04/19 10:53:52;;;;;;;0.60;0.60;;;;;;;23.80;35.34;99092.50;1884572;75;27997;-48
2023/04/19 10:57:03;;;;;;;0.53;0.53;;;;;;;23.81;35.30;99085.91;1898423;75;28068;-52
2023/04/19 11:00:10;;;;;;;0.50;0.50;;;;;;;23.80;35.33;99073.30;1883886;74;28786;-54
2023/04/19 11:03:00;;;;;;;0.50;0.50;;;;;;;23.79;35.34;99075.74;1829589;78;28200;-52
2023/04/19 11:05:55;;;;;;;0.60;0.60;;;;;;;23.81;35.30;99069.45;1898672;75;28040;-52
2023/04/19 11:08:46;;;;;;;0.82;0.62;;;;;;;23.80;35.27;99059.05;1901358;74;28126;-50
2023/04/19 11:11:36;;;;;;;0.60;0.60;;;;;;;23.82;35.25;99058.79;1905993;74;28228;-51
2023/04/19 11:14:25;;;;;;;0.42;0.42;;;;;;;23.80;35.29;99053.56;1873630;75;28007;-50
2023/04/19 11:17:20;;;;;;;0.50;0.50;;;;;;;23.82;35.25;99045.91;1893702;75;28064;-49
2023/04/19 11:20:10;;;;;;;2.00;0.60;;;;;;;23.86;35.20;99033.34;1905291;74;28269;-48
2023/04/19 11:22:59;;;;;;;0.60;0.60;;;;;;;23.85;35.18;99024.00;1904711;74;27962;-49
2023/04/19 11:25:52;;;;;;;0.80;0.45;;;;;;;23.87;35.16;99021.30;1886894;75;28121;-50
2023/04/19 11:28:40;;;;;;;0.53;0.53;;;;;;;23.88;35.14;99015.25;1869031;75;27963;-47
2023/04/19 11:31:31;;;;;;;0.45;0.45;;;;;;;23.86;35.15;99016.05;1894781;75;28060;-49
2023/04/19 11:34:22;;;;;;;0.60;0.60;;;;;;;23.88;35.10;99002.91;1887056;75;28063;-48
2023/04/19 11:37:10;;;;;;;0.50;0.50;;;;;;;23.91;35.05;99006.52;1879976;75;27962;-50
2023/04/19 11:39:59;;;;;;;0.70;0.60;;;;;;;23.91;35.05;99002.41;1895950;74;28016;-51
2023/04/19 11:42:49;;;;;;;0.60;0.53;;;;;;;23.92;35.04;98997.22;1896196;74;30214;-53
2023/04/19 11:45:38;;;;;;;0.50;0.50;;;;;;;23.94;35.01;98993.67;1914367;74;27919;-51
2023/04/19 11:48:27;;;;;;;0.40;0.40;;;;;;;23.92;35.01;98978.02;1854858;77;28215;-51
2023/04/19 11:51:16;;;;;;;0.50;0.50;;;;;;;23.91;35.01;98979.92;1903774;74;28107;-50
2023/04/19 11:54:07;;;;;;;0.50;0.50;;;;;;;23.90;35.04;98973.30;1900714;75;28006;-48
2023/04/19 11:57:07;;;;;;;0.80;0.80;;;;;;;23.92;35.01;98967.05;1893895;75;28225;-54
2023/04/19 12:00:10;;;;;;;0.60;0.50;;;;;;;23.92;35.01;98961.55;1900426;74;27993;-48
2023/04/19 12:03:03;;;;;;;0.68;0.68;;;;;;;23.90;35.03;98949.45;1854792;77;28245;-52
2023/04/19 12:05:54;;;;;;;0.57;0.57;;;;;;;23.89;35.04;98942.86;1903533;74;28068;-50
2023/04/19 12:08:46;;;;;;;0.90;0.70;;;;;;;23.91;35.05;98935.19;1905494;74;27934;-47
2023/04/19 12:11:48;;;;;;;0.50;0.50;;;;;;;23.92;34.99;98930.01;1887075;75;28108;-47
2023/04/19 12:14:36;;;;;;;0.47;0.47;;;;;;;23.93;34.83;98924.25;1886658;74;27922;-54
2023/04/19 12:17:25;;;;;;;0.50;0.50;;;;;;;23.90;34.82;98919.27;1866767;75;27954;-51
2023/04/19 12:20:14;;;;;;;0.60;0.60;;;;;;;23.93;34.76;98919.30;1887479;75;28052;-50
2023/04/19 12:23:04;;;;;;;0.82;0.60;;;;;;;23.93;34.79;98910.53;1892946;75;27956;-49
2023/04/19 12:25:52;;;;;;;0.55;0.55;;;;;;;23.95;34.80;98907.52;1883816;74;27994;-51
2023/04/19 12:28:41;;;;;;;0.50;0.50;;;;;;;23.93;34.85;98913.28;1890485;74;27938;-48
2023/04/19 12:31:34;;;;;;;0.50;0.50;;;;;;;23.94;34.82;98905.32;1888802;75;28061;-50
2023/04/19 12:34:22;;;;;;;0.60;0.60;;;;;;;23.95;34.78;98897.92;1904557;74;27986;-49
2023/04/19 12:37:10;;;;;;;0.55;0.55;;;;;;;23.96;34.81;98889.99;1901458;74;28151;-49
2023/04/19 12:39:59;;;;;;;0.40;0.40;;;;;;;23.96;34.78;98894.11;1894867;74;27957;-49
2023/04/19 12:42:47;;;;;;;0.40;0.40;;;;;;;23.95;34.76;98891.91;1895870;74;28064;-48
2023/04/19 12:45:35;;;;;;;0.50;0.50;;;;;;;23.95;34.74;98885.05;1898265;74;28117;-51
2023/04/19 12:48:24;;;;;;;0.57;0.57;;;;;;;23.96;34.76;98881.77;1878743;74;27958;-53
2023/04/19 12:51:12;;;;;;;0.40;0.40;;;;;;;24.00;34.70;98885.64;1908408;74;28111;-49
2023/04/19 12:54:01;;;;;;;0.60;0.60;;;;;;;23.98;34.75;98868.08;1899987;75;28031;-47
2023/04/19 12:56:50;;;;;;;1.30;0.75;;;;;;;23.97;34.70;98862.29;1895562;75;28127;-53
2023/04/19 12:59:38;;;;;;;0.60;0.60;;;;;;;23.97;34.68;98872.43;1875066;74;27952;-51
2023/04/19 13:02:26;;;;;;;0.70;0.60;;;;;;;23.98;34.62;98861.75;1893728;74;28297;-48
2023/04/19 13:05:15;;;;;;;0.45;0.45;;;;;;;23.99;34.62;98860.68;1913938;74;27984;-48
2023/04/19 13:08:04;;;;;;;0.57;0.55;;;;;;;24.00;34.61;98845.86;1901124;74;28045;-48
2023/04/19 13:10:53;;;;;;;0.67;0.60;;;;;;;24.02;34.58;98845.05;1875031;74;28001;-48
2023/04/19 13:13:41;;;;;;;1.17;0.50;;;;;;;23.99;34.56;98833.25;1893793;74;28204;-48
2023/04/19 13:16:30;;;;;;;0.50;0.50;;;;;;;23.98;34.60;98824.18;1889396;75;27938;-47
2023/04/19 13:19:18;;;;;;;0.57;0.57;;;;;;;24.01;34.55;98820.09;1889423;75;28165;-48
2023/04/19 13:22:06;;;;;;;0.72;0.70;;;;;;;24.00;34.51;98819.80;1905993;74;28115;-47